Time;durP1;ratioP1;P1;durP2;ratioP2;P2;SDS_P1;SDS_P2;PMS_P1;PMS_P2;Temp;Humidity;BMP_temperature;BMP_pressure;BME280_temperature;BME280_humidity;BME280_pressure;Samples;Min_cycle;Max_cycle;Signal;HPM_P1;HPM_P2
2022/11/11 00:06:09;;;;;;;22.75;12.27;;;;;;;5.20;100.00;101838.94;20901697;28;20559;-72
2022/11/11 00:16:10;;;;;;;21.10;10.80;;;;;;;5.02;100.00;101830.59;20902886;28;20102;-70
2022/11/11 00:26:12;;;;;;;16.38;9.13;;;;;;;4.92;100.00;101838.94;20902022;28;20053;-71
2022/11/11 00:36:33;;;;;;;14.73;7.70;;;;;;;4.76;100.00;101837.59;20900508;28;20186;-72
2022/11/11 00:56:55;;;;;;;43.13;19.60;;;;;;;4.54;100.00;101873.22;20997500;22;20053;-71
2022/11/11 01:06:56;;;;;;;15.55;7.93;;;;;;;4.56;100.00;101870.72;20983561;28;20067;-71
2022/11/11 01:16:58;;;;;;;20.52;7.88;;;;;;;4.50;100.00;101866.19;20983733;28;20098;-70
2022/11/11 01:26:59;;;;;;;13.48;7.25;;;;;;;4.41;100.00;101867.59;20983173;28;20382;-70
2022/11/11 01:37:02;;;;;;;15.73;7.75;;;;;;;4.36;100.00;101863.16;20982394;28;20515;-70
2022/11/11 01:47:03;;;;;;;17.15;9.27;;;;;;;4.36;100.00;101875.25;20982660;28;20056;-69
2022/11/11 01:57:05;;;;;;;21.77;11.00;;;;;;;4.46;100.00;101887.69;20994606;28;20151;-70
2022/11/11 02:07:06;;;;;;;18.63;9.38;;;;;;;4.40;100.00;101881.38;20996322;28;20524;-69
2022/11/11 02:17:08;;;;;;;23.20;10.55;;;;;;;4.22;100.00;101874.78;20996490;28;20536;-70
2022/11/11 02:27:09;;;;;;;22.98;9.23;;;;;;;4.14;100.00;101873.63;20992999;28;20045;-69
2022/11/11 02:37:11;;;;;;;19.85;9.30;;;;;;;4.06;100.00;101863.00;20995857;28;20067;-69
2022/11/11 02:47:12;;;;;;;17.02;8.55;;;;;;;4.08;100.00;101876.03;20996052;28;20044;-73
2022/11/11 02:57:13;;;;;;;18.88;8.40;;;;;;;4.07;100.00;101875.16;20992669;28;20057;-69
2022/11/11 03:07:15;;;;;;;18.02;9.05;;;;;;;4.07;100.00;101863.88;20990716;28;20059;-69
2022/11/11 03:27:36;;;;;;;20.02;9.60;;;;;;;3.85;100.00;101888.16;20991121;28;20048;-69
2022/11/11 03:47:58;;;;;;;12.35;7.35;;;;;;;4.18;100.00;101924.75;20906736;28;20068;-69
2022/11/11 03:58:00;;;;;;;13.80;7.45;;;;;;;4.30;100.00;101939.84;20992760;28;20048;-69
2022/11/11 04:21:42;;;;;;;12.13;6.63;;;;;;;4.46;100.00;101944.75;21070592;28;20059;-71
2022/11/11 04:49:23;;;;;;;17.65;8.48;;;;;;;5.31;100.00;101954.38;20985467;28;20489;-69
2022/11/11 04:59:24;;;;;;;23.83;10.52;;;;;;;5.30;100.00;101977.72;20984888;28;20059;-69
2022/11/11 05:09:26;;;;;;;25.60;10.27;;;;;;;5.39;100.00;101978.88;20983107;28;20512;-69
2022/11/11 05:29:47;;;;;;;28.13;10.25;;;;;;;5.43;100.00;101994.56;21069072;28;20626;-69
2022/11/11 05:39:49;;;;;;;29.10;11.98;;;;;;;5.52;100.00;101990.53;21062528;28;20044;-69
2022/11/11 05:49:50;;;;;;;23.05;10.18;;;;;;;5.59;100.00;101996.78;20998466;28;20098;-69
2022/11/11 05:59:51;;;;;;;20.10;8.00;;;;;;;5.63;100.00;102011.66;20997534;28;20056;-70
2022/11/11 06:10:29;;;;;;;31.88;8.52;;;;;;;5.71;100.00;102023.16;20996623;28;20045;-69
2022/11/11 06:20:14;;;;;;;13.13;6.78;;;;;;;5.74;100.00;102038.81;20995177;28;20094;-70
2022/11/11 06:30:15;;;;;;;21.10;7.85;;;;;;;5.77;100.00;102033.72;20994178;28;20437;-70
2022/11/11 06:40:37;;;;;;;16.85;8.82;;;;;;;5.77;100.00;102046.72;20966953;28;20045;-70
2022/11/11 06:50:38;;;;;;;19.30;8.30;;;;;;;5.75;100.00;102047.50;20960104;23;20049;-79
2022/11/11 07:00:40;;;;;;;28.65;7.75;;;;;;;5.79;100.00;102063.25;21012006;28;20182;-79
2022/11/11 07:10:41;;;;;;;20.25;7.53;;;;;;;5.82;100.00;102058.16;21022485;28;20061;-79
2022/11/11 07:20:57;;;;;;;16.65;7.65;;;;;;;6.01;100.00;102056.13;21207097;22;20070;-84
2022/11/11 07:30:58;;;;;;;23.08;9.90;;;;;;;6.14;100.00;102066.94;21021095;28;20040;-85
2022/11/11 07:40:59;;;;;;;16.00;7.53;;;;;;;6.16;100.00;102074.78;21023977;28;20053;-85
2022/11/11 07:51:01;;;;;;;16.20;7.72;;;;;;;6.13;100.00;102079.88;21001774;28;20102;-83
2022/11/11 08:01:02;;;;;;;14.43;7.00;;;;;;;6.22;100.00;102074.06;21003568;28;20040;-83
2022/11/11 08:11:09;;;;;;;19.05;9.40;;;;;;;6.37;100.00;102080.63;21007311;28;20044;-83
2022/11/11 08:21:16;;;;;;;21.77;10.70;;;;;;;6.50;100.00;102086.16;20954559;28;20037;-82
2022/11/11 08:31:18;;;;;;;14.30;7.60;;;;;;;6.73;100.00;102066.84;20965044;28;20220;-82
2022/11/11 08:41:21;;;;;;;19.55;11.10;;;;;;;6.64;100.00;102066.59;20968117;28;20102;-81
2022/11/11 08:51:22;;;;;;;17.77;7.07;;;;;;;6.71;100.00;102060.72;20955261;28;20580;-82
2022/11/11 09:01:24;;;;;;;18.23;8.85;;;;;;;7.09;100.00;102079.03;21009298;22;20462;-70
2022/11/11 09:11:26;;;;;;;15.60;8.63;;;;;;;7.07;100.00;102080.75;20982980;28;20055;-69
2022/11/11 09:21:28;;;;;;;14.85;7.75;;;;;;;7.38;100.00;102071.97;20982856;28;20056;-71
2022/11/11 09:31:29;;;;;;;14.88;9.25;;;;;;;7.42;100.00;102059.03;20981763;28;20048;-69
2022/11/11 09:41:44;;;;;;;21.70;10.95;;;;;;;7.35;100.00;102080.59;20945950;28;20049;-70
2022/11/11 09:51:45;;;;;;;17.77;9.70;;;;;;;7.40;100.00;102083.31;20898031;28;20059;-70
2022/11/11 10:01:47;;;;;;;15.63;9.90;;;;;;;7.51;100.00;102088.75;20897100;28;20180;-69
2022/11/11 10:11:48;;;;;;;15.90;9.30;;;;;;;7.76;100.00;102091.13;20911947;28;20060;-71
2022/11/11 10:21:49;;;;;;;16.35;9.70;;;;;;;7.75;100.00;102093.66;20962405;28;20052;-70
2022/11/11 10:32:10;;;;;;;17.60;10.98;;;;;;;7.74;100.00;102098.00;20911660;28;20044;-72
2022/11/11 10:42:12;;;;;;;17.52;10.68;;;;;;;7.97;100.00;102069.84;20870597;28;20057;-72
2022/11/11 10:52:13;;;;;;;20.08;11.90;;;;;;;8.30;100.00;102079.25;20826219;28;20415;-71
2022/11/11 11:02:15;;;;;;;19.60;11.85;;;;;;;8.64;100.00;102059.94;20826574;28;20077;-73
2022/11/11 11:12:16;;;;;;;17.85;10.43;;;;;;;8.46;100.00;102045.66;20826042;28;20099;-72
2022/11/11 11:22:17;;;;;;;21.23;11.95;;;;;;;8.43;100.00;102037.78;20823340;28;20556;-72
2022/11/11 11:32:20;;;;;;;20.35;12.18;;;;;;;8.46;100.00;102034.34;20823522;28;20402;-72
2022/11/11 11:42:22;;;;;;;24.50;11.05;;;;;;;8.39;100.00;102027.25;20863994;28;20398;-72
2022/11/11 11:52:23;;;;;;;20.58;11.60;;;;;;;8.61;100.00;102025.91;20904360;28;20456;-72
2022/11/11 12:02:24;;;;;;;22.50;12.85;;;;;;;8.72;100.00;102022.66;20903089;28;20053;-72
2022/11/11 12:12:26;;;;;;;23.15;13.50;;;;;;;8.37;100.00;102016.78;20903180;28;20098;-72
2022/11/11 12:22:27;;;;;;;24.75;13.05;;;;;;;8.15;100.00;102031.09;20901211;28;20121;-73
2022/11/11 12:32:28;;;;;;;25.23;14.18;;;;;;;8.59;100.00;102027.63;20900627;28;20048;-72
2022/11/11 12:42:30;;;;;;;20.30;12.52;;;;;;;8.61;100.00;102029.41;20858589;28;20095;-72
2022/11/11 12:52:31;;;;;;;22.58;12.63;;;;;;;8.53;100.00;102035.31;20886291;23;20068;-73
2022/11/11 13:02:32;;;;;;;41.15;15.30;;;;;;;8.55;100.00;102029.28;20984910;28;20044;-73
2022/11/11 13:12:34;;;;;;;27.20;14.80;;;;;;;8.55;100.00;102038.88;21066727;28;20458;-71
2022/11/11 13:22:35;;;;;;;27.88;14.05;;;;;;;8.56;100.00;102036.28;21066598;28;20094;-72
2022/11/11 13:32:36;;;;;;;24.25;14.50;;;;;;;8.72;100.00;102040.06;21065121;28;20462;-72
2022/11/11 13:42:38;;;;;;;24.60;13.80;;;;;;;8.53;100.00;102025.78;21020817;28;20052;-72
2022/11/11 13:52:39;;;;;;;27.13;14.45;;;;;;;8.32;100.00;102010.56;20993027;28;20056;-73
2022/11/11 14:02:40;;;;;;;29.13;15.98;;;;;;;8.37;100.00;102022.00;20996211;28;20455;-74
2022/11/11 14:12:42;;;;;;;26.13;15.02;;;;;;;8.58;100.00;102007.59;21069662;28;20048;-77
2022/11/11 14:22:43;;;;;;;31.55;16.33;;;;;;;8.59;100.00;102051.13;21077911;28;20540;-75
2022/11/11 14:32:45;;;;;;;32.47;18.33;;;;;;;8.22;100.00;102032.97;21076754;28;20089;-72
2022/11/11 14:42:46;;;;;;;31.65;16.30;;;;;;;8.32;100.00;102026.22;21031716;28;20056;-76
2022/11/11 14:52:47;;;;;;;29.48;16.63;;;;;;;8.27;100.00;102026.97;20993602;28;20048;-70
2022/11/11 15:02:49;;;;;;;31.27;15.38;;;;;;;8.11;100.00;102031.88;20987155;28;20045;-70
2022/11/11 15:12:50;;;;;;;32.42;16.55;;;;;;;8.12;100.00;102023.22;20991978;28;20052;-71
2022/11/11 15:22:52;;;;;;;29.60;14.65;;;;;;;8.02;100.00;102025.59;20990564;28;20140;-71
2022/11/11 15:32:53;;;;;;;65.90;13.98;;;;;;;7.96;100.00;102016.81;21074354;28;20052;-71
2022/11/11 15:42:54;;;;;;;31.05;17.05;;;;;;;7.80;100.00;102019.91;21026714;28;20414;-71
2022/11/11 15:52:56;;;;;;;63.25;13.63;;;;;;;7.81;100.00;102019.09;20983804;28;20044;-71
2022/11/11 16:03:01;;;;;;;41.67;18.55;;;;;;;7.85;100.00;102018.28;20983881;28;20048;-71
2022/11/11 16:13:02;;;;;;;50.60;14.77;;;;;;;7.69;100.00;102027.50;20984723;28;20060;-72
2022/11/11 16:23:04;;;;;;;39.47;16.58;;;;;;;7.84;100.00;102021.75;20985491;28;20059;-72
2022/11/11 16:33:05;;;;;;;62.80;18.75;;;;;;;7.74;100.00;102038.03;20983650;28;20044;-71
2022/11/11 16:43:06;;;;;;;49.47;21.33;;;;;;;7.86;100.00;102040.94;20935991;28;20076;-71
2022/11/11 16:53:08;;;;;;;62.58;17.42;;;;;;;7.69;100.00;102034.44;20899824;28;20056;-70
2022/11/11 17:03:09;;;;;;;65.90;17.60;;;;;;;7.45;100.00;102037.38;20903378;28;20074;-71
2022/11/11 17:13:11;;;;;;;38.35;15.43;;;;;;;7.50;100.00;102019.25;20936982;28;20052;-71
2022/11/11 17:23:12;;;;;;;88.85;26.38;;;;;;;7.42;100.00;102009.50;20937976;28;20523;-71
2022/11/11 17:33:14;;;;;;;52.53;16.75;;;;;;;7.43;100.00;102029.53;20907009;28;20057;-70
2022/11/11 17:43:16;;;;;;;50.30;13.25;;;;;;;7.35;100.00;102025.88;20923898;28;20053;-70
2022/11/11 17:53:17;;;;;;;26.88;11.45;;;;;;;7.12;100.00;102029.63;20905296;28;20110;-70
2022/11/11 18:03:19;;;;;;;111.78;15.82;;;;;;;7.13;100.00;102036.59;20903715;28;20072;-70
2022/11/11 18:13:21;;;;;;;34.38;12.43;;;;;;;7.15;100.00;102027.13;20936655;28;20048;-70
2022/11/11 18:23:22;;;;;;;26.45;12.13;;;;;;;7.14;100.00;102041.00;20979981;28;20048;-70
2022/11/11 18:33:24;;;;;;;35.05;13.05;;;;;;;7.13;100.00;102040.09;21000363;28;20430;-70
2022/11/11 18:43:26;;;;;;;32.80;14.43;;;;;;;7.28;100.00;102044.81;20974717;28;20071;-70
2022/11/11 18:53:28;;;;;;;30.15;16.13;;;;;;;7.35;100.00;102035.41;20998441;28;20163;-71
2022/11/11 19:03:29;;;;;;;45.80;13.93;;;;;;;7.22;100.00;102039.44;20974667;28;20067;-70
2022/11/11 19:13:31;;;;;;;67.43;15.02;;;;;;;7.08;100.00;102048.63;21001848;28;20090;-70
2022/11/11 19:23:32;;;;;;;80.82;15.90;;;;;;;6.92;100.00;102058.66;20969238;28;20072;-70
2022/11/11 19:33:33;;;;;;;66.53;15.48;;;;;;;6.93;100.00;102060.44;20994817;28;20663;-70
2022/11/11 19:43:34;;;;;;;29.55;12.73;;;;;;;6.92;100.00;102050.84;20970190;28;20482;-70
2022/11/11 19:53:36;;;;;;;38.60;13.20;;;;;;;7.02;100.00;102044.16;20968529;28;20098;-70
2022/11/11 20:03:37;;;;;;;25.98;12.10;;;;;;;7.09;100.00;102063.41;20968492;28;20048;-69
2022/11/11 20:13:38;;;;;;;93.13;15.77;;;;;;;6.80;100.00;102068.75;20990250;28;20445;-69
2022/11/11 20:23:43;;;;;;;32.20;11.67;;;;;;;6.84;100.00;102070.59;20973421;28;20063;-69
2022/11/11 20:33:44;;;;;;;38.47;12.25;;;;;;;6.94;100.00;102075.19;20995276;28;20048;-69
2022/11/11 20:43:45;;;;;;;22.83;10.32;;;;;;;6.75;100.00;102077.28;20960021;28;20056;-69
2022/11/11 20:53:46;;;;;;;54.65;12.73;;;;;;;6.89;100.00;102084.63;20962160;28;20139;-69
2022/11/11 21:03:48;;;;;;;75.38;14.75;;;;;;;6.75;100.00;102085.09;20954209;28;20048;-69
2022/11/11 21:13:49;;;;;;;62.08;15.13;;;;;;;6.81;100.00;102073.13;20993271;28;20459;-69
2022/11/11 21:23:50;;;;;;;67.22;16.30;;;;;;;6.81;100.00;102067.94;20955714;28;20056;-69
2022/11/11 21:33:51;;;;;;;49.22;13.70;;;;;;;6.75;100.00;102072.94;20979028;28;20060;-69
2022/11/11 21:43:53;;;;;;;62.50;15.90;;;;;;;6.65;100.00;102052.72;20959277;28;20064;-69
2022/11/11 21:53:55;;;;;;;57.80;13.63;;;;;;;6.67;100.00;102058.88;20958832;28;20059;-69
2022/11/11 22:04:02;;;;;;;46.10;15.90;;;;;;;6.72;100.00;102061.59;20970442;28;20169;-69
2022/11/11 22:14:03;;;;;;;47.78;15.13;;;;;;;6.77;100.00;102047.88;20946788;28;20049;-69
2022/11/11 22:24:05;;;;;;;23.08;11.20;;;;;;;6.74;100.00;102039.97;20905299;28;20123;-69
2022/11/11 22:34:06;;;;;;;51.40;14.15;;;;;;;6.72;100.00;102039.06;20902520;28;20416;-69
2022/11/11 22:44:07;;;;;;;22.90;10.77;;;;;;;6.62;100.00;102045.75;20958073;28;20467;-68
2022/11/11 22:54:09;;;;;;;85.10;14.13;;;;;;;6.69;100.00;102045.03;20984950;28;20129;-67
2022/11/11 23:04:13;;;;;;;36.45;12.82;;;;;;;6.64;100.00;102043.16;20987797;28;20076;-67
2022/11/11 23:14:14;;;;;;;15.10;8.93;;;;;;;6.73;100.00;102042.53;20992101;28;20052;-67
2022/11/11 23:24:16;;;;;;;88.55;12.18;;;;;;;6.70;100.00;102038.13;20990203;28;20094;-67
2022/11/11 23:34:17;;;;;;;69.72;12.27;;;;;;;6.69;100.00;102025.94;20988414;28;20500;-67
2022/11/11 23:44:19;;;;;;;50.75;18.13;;;;;;;6.63;100.00;102041.41;20932547;28;20556;-69
2022/11/11 23:54:20;;;;;;;37.95;9.95;;;;;;;6.51;100.00;102031.53;20906689;28;20060;-68
